Time;durP1;ratioP1;P1;durP2;ratioP2;P2;SDS_P1;SDS_P2;PMS_P1;PMS_P2;Temp;Humidity;BMP_temperature;BMP_pressure;BME280_temperature;BME280_humidity;BME280_pressure;Samples;Min_cycle;Max_cycle;Signal;HPM_P1;HPM_P2
2021/08/17 00:00:42;;;;;;;9.32;7.03;;;;;;;21.73;65.33;99101.91;5024672;28;20041;-69
2021/08/17 00:03:09;;;;;;;10.98;6.30;;;;;;;21.72;65.18;99108.31;5026056;28;20042;-67
2021/08/17 00:05:38;;;;;;;7.78;5.97;;;;;;;21.69;65.39;99101.50;5026070;28;20445;-69
2021/08/17 00:08:06;;;;;;;10.77;6.75;;;;;;;21.65;64.68;99112.91;5028806;28;20041;-67
2021/08/17 00:10:33;;;;;;;8.90;5.53;;;;;;;21.65;64.98;99110.22;5030290;28;20251;-70
2021/08/17 00:13:00;;;;;;;7.47;6.07;;;;;;;21.64;64.31;99114.72;5029601;28;20347;-68
2021/08/17 00:15:26;;;;;;;8.10;5.47;;;;;;;21.62;64.12;99116.00;5029413;28;20060;-69
2021/08/17 00:17:54;;;;;;;12.23;5.78;;;;;;;21.53;64.15;99113.53;5029657;28;20049;-68
2021/08/17 00:20:21;;;;;;;9.10;5.78;;;;;;;21.33;64.61;99105.47;5028997;28;20100;-69
2021/08/17 00:22:49;;;;;;;8.93;5.78;;;;;;;21.12;64.71;99106.56;5028672;28;20053;-69
2021/08/17 00:25:16;;;;;;;12.23;7.25;;;;;;;20.95;64.75;99108.81;5029266;28;20049;-70
2021/08/17 00:27:43;;;;;;;10.35;5.90;;;;;;;20.85;63.51;99103.06;5029377;28;20049;-68
2021/08/17 00:30:12;;;;;;;10.38;5.68;;;;;;;20.81;64.31;99121.44;5028712;28;20156;-69
2021/08/17 00:32:39;;;;;;;9.82;5.60;;;;;;;20.68;64.41;99125.94;5028944;28;20041;-68
2021/08/17 00:35:07;;;;;;;10.02;5.50;;;;;;;20.55;64.59;99116.00;5028156;28;20072;-69
2021/08/17 00:37:34;;;;;;;9.60;5.70;;;;;;;20.46;65.32;99117.22;5028476;28;20060;-72
2021/08/17 00:40:02;;;;;;;7.47;4.93;;;;;;;20.42;65.56;99120.31;5028445;28;20141;-67
2021/08/17 00:42:32;;;;;;;11.55;5.63;;;;;;;20.31;65.83;99120.06;5027040;28;20056;-68
2021/08/17 00:45:02;;;;;;;8.80;5.38;;;;;;;20.33;66.10;99118.00;5028677;28;20052;-69
2021/08/17 00:47:29;;;;;;;8.20;5.00;;;;;;;20.36;65.94;99117.59;5029683;28;20049;-69
2021/08/17 00:49:56;;;;;;;7.95;5.75;;;;;;;20.36;65.91;99106.88;5028252;28;20045;-68
2021/08/17 00:52:23;;;;;;;8.73;5.15;;;;;;;20.39;66.08;99109.97;5029123;28;20529;-68
2021/08/17 00:54:50;;;;;;;7.57;4.70;;;;;;;20.41;66.18;99113.28;5028249;28;20046;-68
2021/08/17 00:57:18;;;;;;;10.45;6.93;;;;;;;20.44;66.20;99117.44;5027810;28;20049;-69
2021/08/17 00:59:45;;;;;;;6.63;5.00;;;;;;;20.44;66.22;99120.94;5029666;28;20092;-69
2021/08/17 01:02:13;;;;;;;6.28;4.80;;;;;;;20.45;66.17;99137.84;5028288;28;20041;-69
2021/08/17 01:04:40;;;;;;;9.05;5.25;;;;;;;20.42;66.30;99149.81;5028131;28;20049;-68
2021/08/17 01:07:08;;;;;;;14.43;4.97;;;;;;;20.39;66.11;99155.56;5029545;28;20049;-68
2021/08/17 01:09:35;;;;;;;9.32;4.75;;;;;;;20.33;66.21;99160.91;5027978;28;20056;-71
2021/08/17 01:12:03;;;;;;;8.60;5.18;;;;;;;20.24;66.27;99174.50;5027880;28;20061;-69
2021/08/17 01:14:31;;;;;;;10.18;4.93;;;;;;;20.20;66.28;99177.78;5030898;28;20052;-70
2021/08/17 01:16:59;;;;;;;9.57;5.20;;;;;;;20.12;66.43;99186.00;5028833;28;20049;-71
2021/08/17 01:19:27;;;;;;;8.48;5.40;;;;;;;19.96;66.64;99193.34;5027700;28;20163;-68
2021/08/17 01:21:54;;;;;;;11.20;5.30;;;;;;;19.94;66.56;99203.44;5028488;28;20042;-68
2021/08/17 01:24:21;;;;;;;9.70;5.80;;;;;;;19.89;66.55;99213.09;5027353;28;20065;-69
2021/08/17 01:26:49;;;;;;;8.45;5.45;;;;;;;19.76;67.09;99216.53;5028094;28;20049;-68
2021/08/17 01:29:17;;;;;;;11.48;5.28;;;;;;;19.62;67.70;99229.78;5028841;28;20075;-73
2021/08/17 01:31:44;;;;;;;12.48;6.35;;;;;;;19.58;67.90;99225.84;5027878;28;20537;-70
2021/08/17 01:34:12;;;;;;;8.68;5.65;;;;;;;19.47;68.22;99229.06;5027111;28;20048;-71
2021/08/17 01:36:39;;;;;;;7.28;5.10;;;;;;;19.38;68.48;99224.88;5027889;28;20049;-68
2021/08/17 01:39:06;;;;;;;10.80;5.68;;;;;;;19.41;68.34;99233.34;5026838;28;20076;-71
2021/08/17 01:41:33;;;;;;;9.93;6.30;;;;;;;19.35;68.51;99231.41;5029027;28;20063;-72
2021/08/17 01:44:05;;;;;;;11.30;6.97;;;;;;;19.35;68.71;99228.75;5028653;28;20047;-70
2021/08/17 01:46:32;;;;;;;10.25;5.57;;;;;;;19.31;68.67;99226.66;5027364;28;20497;-72
2021/08/17 01:48:58;;;;;;;12.90;7.00;;;;;;;19.24;68.74;99222.06;5028419;28;20049;-70
2021/08/17 01:51:25;;;;;;;8.93;5.55;;;;;;;19.18;68.96;99222.03;5027969;28;20057;-69
2021/08/17 01:53:52;;;;;;;10.43;6.18;;;;;;;19.09;69.37;99215.97;5026766;28;20136;-69
2021/08/17 01:56:19;;;;;;;7.88;6.38;;;;;;;19.00;69.69;99209.91;5028245;28;20049;-76
2021/08/17 01:58:46;;;;;;;12.90;7.35;;;;;;;18.92;69.80;99218.06;5028364;28;20049;-76
2021/08/17 02:01:14;;;;;;;10.68;7.38;;;;;;;18.85;70.05;99218.00;5027061;28;20080;-70
2021/08/17 02:03:41;;;;;;;14.70;7.25;;;;;;;18.77;70.40;99231.47;5027956;28;20439;-72
2021/08/17 02:06:10;;;;;;;12.75;7.68;;;;;;;18.65;70.60;99227.63;5028349;28;20128;-70
2021/08/17 02:08:37;;;;;;;11.73;7.05;;;;;;;18.51;70.02;99231.97;5026423;28;20450;-70
2021/08/17 02:11:04;;;;;;;14.02;7.97;;;;;;;18.38;70.48;99219.28;5029491;28;20163;-71
2021/08/17 02:13:32;;;;;;;12.25;7.78;;;;;;;18.31;70.32;99223.72;5028445;28;20045;-70
2021/08/17 02:16:00;;;;;;;10.98;7.50;;;;;;;18.25;70.50;99237.84;5029706;28;20084;-70
2021/08/17 02:18:30;;;;;;;11.90;8.70;;;;;;;18.15;70.74;99222.94;5032520;28;20362;-72
2021/08/17 02:20:58;;;;;;;13.23;9.45;;;;;;;18.11;70.89;99227.00;5029116;28;20514;-70
2021/08/17 02:23:25;;;;;;;11.30;8.32;;;;;;;18.04;71.25;99220.72;5028520;28;20089;-68
2021/08/17 02:25:52;;;;;;;18.55;8.60;;;;;;;17.95;71.29;99228.00;5030689;28;20045;-70
2021/08/17 02:28:19;;;;;;;16.90;8.90;;;;;;;17.90;71.20;99226.91;5028651;28;20071;-69
2021/08/17 02:30:47;;;;;;;12.13;7.82;;;;;;;17.81;71.36;99233.28;5027811;28;20061;-70
2021/08/17 02:33:14;;;;;;;12.13;7.35;;;;;;;17.72;71.68;99228.03;5029154;28;20045;-75
2021/08/17 02:35:43;;;;;;;13.13;8.75;;;;;;;17.66;71.93;99236.78;5028771;28;20045;-69
2021/08/17 02:38:10;;;;;;;10.80;8.25;;;;;;;17.61;72.25;99230.31;5027479;28;20489;-70
2021/08/17 02:40:37;;;;;;;10.50;7.65;;;;;;;17.52;72.32;99226.91;5027831;28;20050;-71
2021/08/17 02:43:04;;;;;;;13.93;8.23;;;;;;;17.48;72.40;99220.25;5026726;28;20041;-70
2021/08/17 02:45:31;;;;;;;13.55;7.47;;;;;;;17.47;72.68;99216.78;5026702;28;20053;-71
2021/08/17 02:47:58;;;;;;;16.27;9.13;;;;;;;17.42;73.02;99211.16;5027317;28;20052;-74
2021/08/17 02:50:26;;;;;;;14.30;8.40;;;;;;;17.42;73.17;99196.97;5026501;28;20045;-72
2021/08/17 02:52:55;;;;;;;11.85;8.07;;;;;;;17.41;73.21;99205.97;5027227;28;20045;-71
2021/08/17 02:55:22;;;;;;;16.02;8.75;;;;;;;17.38;73.27;99200.00;5027919;28;20046;-71
2021/08/17 02:57:51;;;;;;;11.57;7.68;;;;;;;17.40;73.12;99197.16;5026569;28;20361;-71
2021/08/17 03:00:19;;;;;;;12.90;8.95;;;;;;;17.41;73.18;99192.63;5026293;28;20507;-73
2021/08/17 03:02:46;;;;;;;19.48;8.70;;;;;;;17.46;73.05;99182.25;5027136;28;20504;-70
2021/08/17 03:05:13;;;;;;;12.43;9.57;;;;;;;17.47;72.98;99184.75;5026335;28;20050;-69
2021/08/17 03:07:48;;;;;;;16.35;9.35;;;;;;;17.48;72.91;99177.56;5027085;28;20052;-72
2021/08/17 03:10:18;;;;;;;12.73;8.23;;;;;;;17.46;72.90;99179.56;5026962;28;20079;-70
2021/08/17 03:12:45;;;;;;;10.20;7.60;;;;;;;17.46;73.01;99176.91;5025597;28;20050;-71
2021/08/17 03:15:12;;;;;;;9.93;7.45;;;;;;;17.50;72.75;99180.88;5026408;28;20076;-70
2021/08/17 03:17:40;;;;;;;14.43;9.00;;;;;;;17.50;72.75;99180.88;5027990;28;20053;-74
2021/08/17 03:20:08;;;;;;;13.98;9.18;;;;;;;17.46;72.86;99177.72;5028131;28;20057;-81
2021/08/17 03:22:36;;;;;;;17.92;9.90;;;;;;;17.48;72.92;99188.22;5030476;28;20088;-76
2021/08/17 03:25:03;;;;;;;14.77;9.05;;;;;;;17.49;72.78;99203.25;5028961;28;20046;-69
2021/08/17 03:27:31;;;;;;;17.17;9.23;;;;;;;17.50;72.82;99207.56;5027290;28;20621;-71
2021/08/17 03:29:58;;;;;;;12.80;7.55;;;;;;;17.50;72.69;99199.56;5032602;28;20291;-75
2021/08/17 03:32:25;;;;;;;12.82;7.93;;;;;;;17.48;72.63;99215.75;5038619;28;20050;-73
2021/08/17 03:34:52;;;;;;;12.50;7.55;;;;;;;17.49;72.40;99208.59;5036015;28;20072;-71
2021/08/17 03:37:19;;;;;;;10.60;7.85;;;;;;;17.47;72.45;99202.59;5034629;28;20049;-70
2021/08/17 03:39:46;;;;;;;9.27;6.53;;;;;;;17.50;72.34;99212.91;5032619;28;20071;-74
2021/08/17 03:42:13;;;;;;;9.30;7.22;;;;;;;17.43;72.34;99214.63;5033855;28;20054;-76
2021/08/17 03:44:42;;;;;;;10.75;7.75;;;;;;;17.43;72.18;99207.47;5032889;28;20046;-78
2021/08/17 03:47:08;;;;;;;8.70;7.10;;;;;;;17.44;72.04;99219.81;5032097;28;20504;-77
2021/08/17 03:49:35;;;;;;;9.38;7.65;;;;;;;17.42;72.36;99227.16;5032978;28;20092;-76
2021/08/17 03:52:03;;;;;;;14.60;8.05;;;;;;;17.49;72.13;99233.44;5031586;28;20099;-75
2021/08/17 03:54:29;;;;;;;9.35;7.15;;;;;;;17.49;72.05;99233.44;5030508;28;20045;-76
2021/08/17 03:56:56;;;;;;;9.98;6.07;;;;;;;17.52;72.23;99234.91;5029909;28;20437;-72
2021/08/17 03:59:23;;;;;;;9.75;7.53;;;;;;;17.56;71.96;99238.88;5031977;28;20100;-72
2021/08/17 04:01:51;;;;;;;9.60;6.95;;;;;;;17.62;71.77;99243.50;5030902;28;20092;-76
2021/08/17 04:04:18;;;;;;;10.02;6.97;;;;;;;17.66;71.63;99242.09;5030609;28;20068;-70
2021/08/17 04:06:45;;;;;;;8.07;5.82;;;;;;;17.69;71.60;99247.09;5032455;28;20053;-69
2021/08/17 04:09:12;;;;;;;10.55;6.65;;;;;;;17.72;71.33;99257.41;5030522;28;20041;-78
2021/08/17 04:11:39;;;;;;;10.57;7.32;;;;;;;17.77;71.66;99259.53;5031624;28;20049;-71
2021/08/17 04:14:06;;;;;;;9.63;6.57;;;;;;;17.78;71.64;99267.38;5031802;28;20084;-68
2021/08/17 04:16:33;;;;;;;12.55;6.95;;;;;;;17.78;71.41;99259.34;5030357;28;20045;-73
2021/08/17 04:19:01;;;;;;;9.05;6.00;;;;;;;17.81;71.67;99268.00;5030885;28;20057;-75
2021/08/17 04:21:28;;;;;;;9.85;5.90;;;;;;;17.84;71.29;99281.00;5030547;28;20545;-69
2021/08/17 04:23:56;;;;;;;9.23;5.72;;;;;;;17.89;71.26;99275.97;5028644;28;20045;-69
2021/08/17 04:26:24;;;;;;;8.30;4.03;;;;;;;17.81;70.83;99268.00;5030728;28;20045;-71
2021/08/17 04:28:51;;;;;;;6.90;5.00;;;;;;;17.57;68.07;99283.25;5030015;28;20053;-81
2021/08/17 04:31:17;;;;;;;6.63;3.95;;;;;;;17.39;69.02;99295.09;5030614;28;20493;-76
2021/08/17 04:33:44;;;;;;;6.55;4.28;;;;;;;17.26;68.84;99302.84;5031447;28;20071;-79
2021/08/17 04:36:13;;;;;;;5.40;3.53;;;;;;;17.15;69.10;99297.94;5030721;28;20041;-78
2021/08/17 04:38:40;;;;;;;4.65;3.22;;;;;;;17.04;68.29;99315.19;5030577;28;20042;-78
2021/08/17 04:41:07;;;;;;;4.38;2.78;;;;;;;16.94;67.93;99319.91;5030891;28;20514;-69
2021/08/17 04:43:33;;;;;;;6.15;3.75;;;;;;;16.83;68.72;99329.13;5031604;28;20051;-71
2021/08/17 04:46:00;;;;;;;4.40;2.67;;;;;;;16.75;68.69;99342.47;5027751;28;20079;-70
2021/08/17 04:48:28;;;;;;;7.22;3.20;;;;;;;16.70;68.58;99350.16;5029357;28;20625;-70
2021/08/17 04:50:55;;;;;;;4.90;2.85;;;;;;;16.65;68.38;99347.19;5028268;28;20605;-69
2021/08/17 04:53:23;;;;;;;5.13;2.78;;;;;;;16.58;68.54;99363.88;5027185;28;20512;-73
2021/08/17 04:55:50;;;;;;;5.05;2.67;;;;;;;16.56;68.40;99360.53;5030743;28;20049;-70
2021/08/17 04:58:17;;;;;;;5.13;2.80;;;;;;;16.54;68.55;99361.72;5029554;28;20545;-69
2021/08/17 05:00:45;;;;;;;5.35;3.03;;;;;;;16.51;68.15;99370.03;5027970;28;20506;-68
2021/08/17 05:03:12;;;;;;;4.82;2.63;;;;;;;16.51;67.97;99367.38;5031368;28;20049;-76
2021/08/17 05:05:39;;;;;;;6.00;3.22;;;;;;;16.43;68.18;99357.56;5030696;28;20049;-74
2021/08/17 05:08:07;;;;;;;6.85;3.30;;;;;;;16.39;68.08;99361.59;5029680;28;20060;-71
2021/08/17 05:10:37;;;;;;;6.40;2.95;;;;;;;16.36;68.51;99370.75;5031274;28;20122;-73
2021/08/17 05:13:04;;;;;;;4.88;2.72;;;;;;;16.42;68.53;99383.41;5030025;28;20037;-73
2021/08/17 05:15:31;;;;;;;4.82;2.90;;;;;;;16.48;68.53;99389.88;5030427;28;20073;-73
2021/08/17 05:17:58;;;;;;;8.80;3.83;;;;;;;16.47;68.48;99384.72;5035085;28;20041;-71
2021/08/17 05:20:26;;;;;;;3.15;2.30;;;;;;;16.50;68.81;99379.88;5035243;28;20041;-77
2021/08/17 05:22:53;;;;;;;8.55;3.33;;;;;;;16.55;68.44;99384.72;5035330;28;20064;-77
2021/08/17 05:25:21;;;;;;;5.97;3.40;;;;;;;16.56;68.52;99384.50;5031036;28;20409;-75
2021/08/17 05:27:49;;;;;;;5.75;3.13;;;;;;;16.67;68.56;99393.16;5032664;28;20060;-70
2021/08/17 05:30:17;;;;;;;6.80;3.78;;;;;;;16.75;67.67;99387.81;5031647;28;20072;-76
2021/08/17 05:32:44;;;;;;;8.25;4.65;;;;;;;16.63;67.92;99396.16;5034783;28;20046;-75
2021/08/17 05:35:12;;;;;;;6.50;4.00;;;;;;;16.66;68.10;99404.84;5032859;28;20053;-74
2021/08/17 05:37:39;;;;;;;6.20;3.55;;;;;;;16.72;68.04;99404.16;5032333;28;20046;-73
2021/08/17 05:40:07;;;;;;;8.93;3.20;;;;;;;16.86;67.84;99402.63;5031163;28;20223;-73
2021/08/17 05:42:34;;;;;;;9.52;4.13;;;;;;;16.94;67.47;99411.44;5029864;28;20045;-69
2021/08/17 05:45:03;;;;;;;4.63;3.28;;;;;;;16.97;67.42;99412.91;5030164;28;20057;-72
2021/08/17 05:47:31;;;;;;;6.47;3.47;;;;;;;17.06;67.05;99413.72;5028922;28;20042;-70
2021/08/17 05:49:58;;;;;;;7.22;4.15;;;;;;;17.09;66.65;99418.72;5029176;28;20053;-68
2021/08/17 05:52:25;;;;;;;7.05;3.92;;;;;;;17.10;66.59;99418.50;5029352;28;20057;-68
2021/08/17 05:54:55;;;;;;;8.43;3.70;;;;;;;17.19;66.57;99412.13;5029768;28;20041;-70
2021/08/17 05:57:21;;;;;;;3.70;2.83;;;;;;;17.25;66.41;99420.44;5027716;28;20084;-71
2021/08/17 05:59:48;;;;;;;5.28;3.10;;;;;;;17.31;66.12;99414.41;5029148;28;20048;-73
2021/08/17 06:02:17;;;;;;;4.63;2.97;;;;;;;17.40;66.06;99418.69;5027847;28;20136;-73
2021/08/17 06:04:43;;;;;;;7.03;3.67;;;;;;;17.53;66.02;99418.13;5028838;28;20351;-71
2021/08/17 06:07:10;;;;;;;7.25;4.05;;;;;;;17.47;65.95;99408.16;5030698;28;20052;-70
2021/08/17 06:09:37;;;;;;;5.40;3.08;;;;;;;17.61;65.88;99417.22;5031101;28;20057;-69
2021/08/17 06:12:05;;;;;;;6.78;3.58;;;;;;;17.80;65.56;99419.44;5028520;28;20609;-70
2021/08/17 06:14:33;;;;;;;4.97;2.92;;;;;;;17.93;65.24;99409.03;5028705;28;20045;-74
2021/08/17 06:17:00;;;;;;;7.30;4.20;;;;;;;17.99;64.16;99418.16;5030089;28;20045;-71
2021/08/17 06:19:28;;;;;;;5.70;3.45;;;;;;;18.28;63.76;99416.56;5028392;28;20049;-73
2021/08/17 06:21:55;;;;;;;5.55;3.22;;;;;;;18.80;62.83;99417.50;5029640;28;20498;-71
2021/08/17 06:24:22;;;;;;;5.45;4.05;;;;;;;19.20;61.35;99420.75;5027278;28;20057;-69
2021/08/17 06:26:49;;;;;;;4.07;3.10;;;;;;;19.26;61.36;99422.66;5027794;28;20451;-72
2021/08/17 06:29:16;;;;;;;9.57;4.03;;;;;;;19.09;60.73;99433.59;5029208;28;20049;-71
2021/08/17 06:31:43;;;;;;;5.53;3.38;;;;;;;18.82;61.33;99432.41;5028865;28;20065;-72
2021/08/17 06:34:10;;;;;;;8.43;3.75;;;;;;;18.74;61.43;99435.13;5030362;28;20057;-72
2021/08/17 06:36:40;;;;;;;6.25;3.00;;;;;;;18.71;61.29;99433.66;5029908;28;20079;-72
2021/08/17 06:39:07;;;;;;;6.28;3.60;;;;;;;18.82;60.46;99420.88;5030883;28;20587;-71
2021/08/17 06:41:35;;;;;;;5.05;3.00;;;;;;;18.93;59.72;99419.59;5031816;28;20053;-73
2021/08/17 06:44:03;;;;;;;10.70;3.70;;;;;;;19.01;58.96;99420.28;5030031;28;20048;-71
2021/08/17 06:46:30;;;;;;;6.30;3.20;;;;;;;19.19;59.14;99427.91;5028087;28;20049;-71
2021/08/17 06:48:57;;;;;;;7.50;3.78;;;;;;;19.26;57.98;99423.47;5028708;28;20051;-74
2021/08/17 06:51:24;;;;;;;5.22;3.05;;;;;;;19.59;58.31;99430.22;5027634;28;20049;-73
2021/08/17 06:53:52;;;;;;;8.15;3.05;;;;;;;20.03;57.44;99431.94;5025240;28;20553;-67
2021/08/17 06:56:19;;;;;;;6.18;3.70;;;;;;;19.75;56.64;99437.22;5027207;28;20049;-67
2021/08/17 06:58:46;;;;;;;5.72;2.45;;;;;;;19.54;56.85;99457.59;5028231;28;20630;-68
2021/08/17 07:01:13;;;;;;;5.50;3.08;;;;;;;19.39;56.46;99454.09;5026882;28;20056;-68
2021/08/17 07:03:40;;;;;;;8.13;4.10;;;;;;;19.20;56.69;99453.69;5030243;28;20049;-68
2021/08/17 07:06:07;;;;;;;5.05;3.25;;;;;;;19.04;57.22;99451.22;5029478;28;20389;-69
2021/08/17 07:08:34;;;;;;;7.32;3.40;;;;;;;18.88;57.18;99461.09;5027671;28;20046;-66
2021/08/17 07:11:02;;;;;;;7.57;3.17;;;;;;;18.95;57.39;99453.16;5024574;28;20057;-68
2021/08/17 07:13:29;;;;;;;7.43;3.63;;;;;;;18.85;57.24;99453.44;5025932;28;20170;-67
2021/08/17 07:15:56;;;;;;;7.13;4.03;;;;;;;18.90;58.21;99460.91;5025772;28;20053;-67
2021/08/17 07:18:23;;;;;;;7.32;3.53;;;;;;;18.93;58.12;99462.41;5023639;28;20045;-68
2021/08/17 07:20:51;;;;;;;9.63;4.25;;;;;;;18.89;57.73;99459.25;5025639;28;20057;-75
2021/08/17 07:23:18;;;;;;;6.40;3.17;;;;;;;18.82;57.45;99459.16;5024689;28;20493;-69
2021/08/17 07:25:46;;;;;;;7.25;4.68;;;;;;;18.93;57.30;99454.38;5024715;28;20041;-75
2021/08/17 07:28:14;;;;;;;4.88;3.35;;;;;;;19.00;57.50;99460.63;5026134;28;20045;-68
2021/08/17 07:30:42;;;;;;;7.32;3.63;;;;;;;19.13;57.44;99460.81;5024733;28;20058;-78
2021/08/17 07:33:09;;;;;;;8.05;3.97;;;;;;;19.10;56.15;99456.66;5026536;28;20061;-67
2021/08/17 07:35:36;;;;;;;7.30;3.55;;;;;;;19.16;56.83;99460.44;5027284;28;20081;-67
2021/08/17 07:38:03;;;;;;;5.45;2.90;;;;;;;19.17;56.49;99462.09;5024972;28;20050;-66
2021/08/17 07:40:30;;;;;;;4.05;2.58;;;;;;;19.35;56.45;99472.41;5023649;28;20073;-69
2021/08/17 07:42:57;;;;;;;8.15;3.53;;;;;;;19.48;56.27;99480.59;5023939;28;20057;-71
2021/08/17 07:45:26;;;;;;;8.70;3.30;;;;;;;19.60;56.04;99478.25;5023230;28;20507;-66
2021/08/17 07:47:52;;;;;;;11.93;3.42;;;;;;;19.62;55.77;99483.44;5024705;28;20053;-71
2021/08/17 07:50:19;;;;;;;5.32;3.28;;;;;;;19.63;55.90;99475.22;5024215;28;20056;-69
2021/08/17 07:52:47;;;;;;;7.10;3.65;;;;;;;19.67;55.30;99476.47;5022084;28;20041;-68
2021/08/17 07:55:15;;;;;;;8.82;4.07;;;;;;;19.51;54.30;99473.22;5025234;28;20052;-69
2021/08/17 07:57:42;;;;;;;6.60;3.80;;;;;;;19.45;54.07;99470.25;5022436;28;20052;-68
2021/08/17 08:00:12;;;;;;;8.35;3.97;;;;;;;19.68;53.74;99472.78;5022440;28;20049;-70
2021/08/17 08:02:40;;;;;;;6.35;3.92;;;;;;;19.73;52.57;99476.75;5024430;28;20046;-68
2021/08/17 08:05:08;;;;;;;7.18;3.80;;;;;;;20.07;52.83;99473.41;5024422;28;20443;-68
2021/08/17 08:07:35;;;;;;;7.18;3.47;;;;;;;20.59;51.73;99482.09;5022879;28;20046;-70
2021/08/17 08:10:02;;;;;;;6.35;3.85;;;;;;;20.59;49.77;99488.28;5022672;28;20045;-69
2021/08/17 08:12:29;;;;;;;8.93;3.83;;;;;;;20.23;50.12;99496.44;5024270;28;20053;-68
2021/08/17 08:14:56;;;;;;;5.03;3.47;;;;;;;20.26;50.14;99488.03;5023384;28;20406;-70
2021/08/17 08:17:23;;;;;;;6.30;3.42;;;;;;;20.06;50.31;99485.16;5021850;28;20631;-70
2021/08/17 08:19:51;;;;;;;5.28;2.97;;;;;;;19.76;50.51;99484.44;5022410;28;20045;-72
2021/08/17 08:22:18;;;;;;;8.63;3.78;;;;;;;19.46;51.48;99492.50;5022193;28;20056;-80
2021/08/17 08:24:45;;;;;;;8.15;3.83;;;;;;;19.58;51.98;99493.69;5023055;28;20649;-69
2021/08/17 08:27:14;;;;;;;7.00;3.95;;;;;;;19.43;50.53;99487.56;5023189;28;20046;-73
2021/08/17 08:29:43;;;;;;;6.63;3.85;;;;;;;19.08;51.65;99501.50;5028228;28;20447;-70
2021/08/17 08:32:10;;;;;;;6.40;3.40;;;;;;;19.10;52.11;99498.63;5025124;28;20045;-72
2021/08/17 08:34:37;;;;;;;4.65;2.97;;;;;;;19.17;52.14;99504.09;5026696;28;20045;-70
2021/08/17 08:37:05;;;;;;;13.02;3.60;;;;;;;19.30;51.79;99498.91;5026219;28;20049;-72
2021/08/17 08:39:33;;;;;;;9.65;3.33;;;;;;;19.54;51.81;99507.66;5027053;28;20045;-73
2021/08/17 08:42:00;;;;;;;5.35;3.45;;;;;;;19.74;51.55;99510.59;5026845;28;20117;-74
2021/08/17 08:44:27;;;;;;;6.53;3.47;;;;;;;19.81;50.34;99501.59;5027256;28;20049;-70
2021/08/17 08:46:54;;;;;;;7.95;2.65;;;;;;;20.02;50.50;99516.88;5026369;28;20060;-74
2021/08/17 08:49:21;;;;;;;4.47;2.53;;;;;;;20.41;49.90;99520.13;5025868;28;20064;-68
2021/08/17 08:51:48;;;;;;;10.63;3.17;;;;;;;20.48;48.45;99518.31;5025655;28;20057;-70
2021/08/17 08:54:17;;;;;;;8.48;4.18;;;;;;;20.58;48.53;99517.97;5025836;28;20049;-77
2021/08/17 08:56:43;;;;;;;7.50;3.60;;;;;;;20.71;47.88;99520.81;5024657;28;20061;-69
2021/08/17 08:59:10;;;;;;;6.47;3.42;;;;;;;20.93;48.35;99520.75;5024826;28;20045;-69
2021/08/17 09:01:37;;;;;;;8.75;3.75;;;;;;;20.78;47.49;99519.00;5026039;28;20136;-73
2021/08/17 09:04:05;;;;;;;6.05;2.90;;;;;;;20.19;48.38;99530.84;5022634;28;20132;-66
2021/08/17 09:06:33;;;;;;;8.75;3.65;;;;;;;19.93;49.75;99542.13;5023843;28;20045;-67
2021/08/17 09:09:10;;;;;;;4.50;2.83;;;;;;;19.79;50.33;99535.81;5024481;28;20049;-67
2021/08/17 09:11:40;;;;;;;7.88;4.07;;;;;;;19.58;50.61;99539.22;5023533;28;20045;-68
2021/08/17 09:14:19;;;;;;;5.30;2.88;;;;;;;19.54;51.09;99539.81;5024082;28;20551;-67
2021/08/17 09:16:47;;;;;;;6.55;3.10;;;;;;;19.44;50.84;99542.75;5023034;28;20493;-67
2021/08/17 09:19:25;;;;;;;5.45;3.22;;;;;;;19.35;51.36;99536.66;5023586;28;20227;-65
2021/08/17 09:21:53;;;;;;;5.65;3.92;;;;;;;19.38;51.46;99533.63;5023820;28;20049;-66
2021/08/17 09:24:21;;;;;;;6.50;3.22;;;;;;;19.59;51.14;99545.41;5023364;28;20671;-69
2021/08/17 09:26:52;;;;;;;4.15;3.17;;;;;;;19.78;50.59;99544.03;5023410;28;20091;-66
2021/08/17 09:29:25;;;;;;;7.35;3.63;;;;;;;20.15;50.53;99550.19;5022834;28;20507;-68
2021/08/17 09:31:53;;;;;;;6.78;3.65;;;;;;;20.52;49.49;99533.00;5024260;28;20053;-68
2021/08/17 09:34:23;;;;;;;5.28;3.80;;;;;;;20.69;47.97;99540.78;5023706;28;20424;-67
2021/08/17 09:36:50;;;;;;;7.32;3.38;;;;;;;20.30;48.01;99550.16;5024473;28;20575;-70
2021/08/17 09:39:29;;;;;;;5.15;3.72;;;;;;;20.25;47.90;99561.44;5023603;28;20064;-69
2021/08/17 09:42:13;;;;;;;8.35;4.22;;;;;;;20.46;46.92;99559.78;5024129;28;20542;-67
2021/08/17 09:44:40;;;;;;;5.80;4.13;;;;;;;20.88;46.54;99568.81;5022699;28;20065;-68
2021/08/17 09:47:07;;;;;;;4.93;3.60;;;;;;;21.26;45.80;99563.06;5024476;28;20711;-70
2021/08/17 09:49:35;;;;;;;5.88;3.60;;;;;;;21.42;46.09;99549.31;5023336;28;20052;-65
2021/08/17 09:52:12;;;;;;;5.30;4.28;;;;;;;21.45;44.26;99534.69;5021684;28;20601;-71
2021/08/17 09:54:40;;;;;;;5.78;3.85;;;;;;;21.24;45.97;99546.34;5020911;28;20129;-66
2021/08/17 09:57:11;;;;;;;6.75;3.95;;;;;;;21.52;44.51;99543.63;5024029;28;20049;-68
2021/08/17 09:59:40;;;;;;;7.55;3.30;;;;;;;21.28;44.74;99556.47;5023470;28;20128;-69
2021/08/17 10:02:08;;;;;;;6.00;3.75;;;;;;;21.04;45.05;99565.84;5022534;28;20068;-70
2021/08/17 10:04:37;;;;;;;8.95;3.72;;;;;;;21.20;45.58;99557.47;5022685;28;20052;-68
2021/08/17 10:07:06;;;;;;;4.60;3.60;;;;;;;21.78;44.81;99567.06;5023266;28;20740;-71
2021/08/17 10:09:34;;;;;;;7.47;4.00;;;;;;;22.07;43.81;99565.09;5021598;28;20056;-68
2021/08/17 10:12:03;;;;;;;6.03;3.25;;;;;;;22.21;43.75;99566.78;5020902;28;20053;-68
2021/08/17 10:14:32;;;;;;;6.70;4.40;;;;;;;22.21;44.12;99572.16;5020320;28;20700;-69
2021/08/17 11:36:25;;;;;;;5.80;3.03;;;;;;;22.44;42.73;99611.38;5877572;23;2174237;-68
2021/08/17 12:03:38;;;;;;;5.43;3.05;;;;;;;22.68;41.20;99594.59;5086983;27;20381;-79
2021/08/17 12:06:12;;;;;;;6.13;3.20;;;;;;;22.62;41.21;99608.91;5100235;28;20055;-70
2021/08/17 12:08:39;;;;;;;7.47;3.60;;;;;;;22.55;40.59;99591.91;5082291;28;20044;-70
2021/08/17 12:11:06;;;;;;;4.93;2.58;;;;;;;22.42;41.40;99610.72;5083880;28;20048;-70
2021/08/17 12:13:39;;;;;;;5.93;3.25;;;;;;;22.42;40.97;99599.94;5084299;28;20048;-72
2021/08/17 12:16:06;;;;;;;5.97;3.30;;;;;;;22.60;40.92;99612.81;5082604;28;20102;-79
2021/08/17 12:18:33;;;;;;;5.63;2.90;;;;;;;22.70;40.99;99613.25;5083714;28;20102;-76
2021/08/17 12:21:04;;;;;;;5.45;2.63;;;;;;;22.65;40.71;99621.09;5085766;28;20052;-75
2021/08/17 12:23:37;;;;;;;4.95;3.42;;;;;;;22.59;40.89;99617.38;5083599;28;20093;-72
2021/08/17 12:26:12;;;;;;;6.63;4.57;;;;;;;22.61;40.37;99615.31;5086763;28;20048;-76
2021/08/17 12:28:39;;;;;;;;;;;;;;;22.85;40.28;99618.41;5082627;28;20040;-74
2021/08/17 12:31:15;;;;;;;5.10;3.88;;;;;;;22.80;40.56;99618.22;5085191;28;19920;-79
2021/08/17 12:33:44;;;;;;;6.22;2.97;;;;;;;22.81;40.88;99619.88;5086574;28;20044;-69
2021/08/17 12:36:12;;;;;;;4.55;2.67;;;;;;;22.90;40.11;99616.78;5084543;28;20089;-77
2021/08/17 12:38:41;;;;;;;5.82;2.50;;;;;;;22.74;40.74;99613.66;5084484;28;20044;-70
2021/08/17 12:41:09;;;;;;;7.20;2.90;;;;;;;22.43;41.45;99613.19;5082914;28;20045;-72
2021/08/17 12:43:40;;;;;;;5.05;3.03;;;;;;;22.21;41.49;99609.00;5079508;28;20084;-74
2021/08/17 12:46:13;;;;;;;7.63;3.30;;;;;;;21.97;41.21;99605.81;5090493;28;20056;-73
2021/08/17 12:48:44;;;;;;;7.28;3.10;;;;;;;22.12;40.71;99605.66;5083657;28;20490;-74
2021/08/17 12:51:21;;;;;;;5.60;3.08;;;;;;;21.95;42.32;99603.34;5088213;28;20101;-71
2021/08/17 12:53:48;;;;;;;5.13;3.05;;;;;;;22.17;41.34;99597.81;5080202;28;20097;-77
2021/08/17 12:56:14;;;;;;;6.22;3.90;;;;;;;22.31;41.17;99604.91;5077399;28;20598;-70
2021/08/17 12:58:45;;;;;;;3.97;3.20;;;;;;;22.43;41.27;99607.81;5078819;28;20051;-75
2021/08/17 13:01:12;;;;;;;5.10;2.75;;;;;;;22.51;40.89;99615.72;5079084;28;20044;-70
2021/08/17 13:03:40;;;;;;;5.00;2.70;;;;;;;22.63;41.12;99602.47;5072814;28;20048;-75
2021/08/17 13:06:08;;;;;;;5.45;2.75;;;;;;;22.78;40.61;99615.75;5070942;28;20109;-76
2021/08/17 13:08:36;;;;;;;3.50;2.50;;;;;;;23.03;40.48;99624.03;5068225;28;20106;-78
2021/08/17 13:11:03;;;;;;;4.65;2.80;;;;;;;23.15;39.49;99604.56;5071147;28;20055;-70
2021/08/17 13:13:30;;;;;;;3.10;2.40;;;;;;;23.16;39.71;99622.41;5072174;28;20669;-74
2021/08/17 13:15:57;;;;;;;4.65;2.90;;;;;;;23.11;40.16;99620.31;5067343;28;20060;-78
2021/08/17 13:18:24;;;;;;;10.65;3.35;;;;;;;22.75;40.19;99634.19;5068727;28;20040;-76